Time;durP1;ratioP1;P1;durP2;ratioP2;P2;SDS_P1;SDS_P2;PMS_P1;PMS_P2;Temp;Humidity;BMP_temperature;BMP_pressure;BME280_temperature;BME280_humidity;BME280_pressure;Samples;Min_cycle;Max_cycle;Signal;HPM_P1;HPM_P2
2022/09/03 00:00:44;;;;;;;;;;;;;;;;;;5037311;28;19949;-93
2022/09/03 00:03:15;;;;;;;;;;;;;;;;;;5036088;28;19917;-93
2022/09/03 00:05:44;;;;;;;;;;;;;;;;;;5017828;28;19917;-93
2022/09/03 00:08:22;;;;;;;;;;;;;;;;;;5035314;28;19917;-92
2022/09/03 00:10:51;;;;;;;;;;;;;;;;;;5017231;28;20474;-94
2022/09/03 00:13:24;;;;;;;;;;;;;;;;;;5035330;28;19917;-93
2022/09/03 00:15:53;;;;;;;;;;;;;;;;;;5017463;28;19980;-94
2022/09/03 00:18:20;;;;;;;;;;;;;;;;;;5017705;28;19921;-94
2022/09/03 00:20:49;;;;;;;;;;;;;;;;;;5026989;28;19918;-93
2022/09/03 00:23:18;;;;;;;;;;;;;;;;;;5019975;28;19924;-93
2022/09/03 00:25:48;;;;;;;;;;;;;;;;;;5015797;28;19932;-94
2022/09/03 00:28:19;;;;;;;;;;;;;;;;;;5016199;28;19961;-93
2022/09/03 00:30:45;;;;;;;;;;;;;;;;;;5014029;28;20440;-92
2022/09/03 00:33:17;;;;;;;;;;;;;;;;;;5018922;28;20364;-93
2022/09/03 00:36:01;;;;;;;;;;;;;;;;;;5027036;28;19917;-92
2022/09/03 00:38:30;;;;;;;;;;;;;;;;;;5019062;28;19967;-92
2022/09/03 00:41:05;;;;;;;;;;;;;;;;;;5019293;28;20381;-94
2022/09/03 00:43:49;;;;;;;;;;;;;;;;;;5025254;28;19987;-93
2022/09/03 00:46:30;;;;;;;;;;;;;;;;;;5035021;28;19927;-94
2022/09/03 00:48:55;;;;;;;;;;;;;;;;;;5017526;28;19918;-93
2022/09/03 00:51:30;;;;;;;;;;;;;;;;;;5004328;28;19918;-95
2022/09/03 00:53:59;;;;;;;;;;;;;;;;;;5022012;28;19917;-93
2022/09/03 00:56:43;;;;;;;;;;;;;;;;;;5034737;28;19956;-94
2022/09/03 00:59:08;;;;;;;;;;;;;;;;;;5043078;28;19917;-94
2022/09/03 01:01:40;;;;;;;;;;;;;;;;;;5042311;28;19917;-94
2022/09/03 01:04:23;;;;;;;;;;;;;;;;;;5040381;28;20039;-93
2022/09/03 01:07:17;;;;;;;;;;;;;;;;;;5041634;28;19925;-94
2022/09/03 01:09:55;;;;;;;;;;;;;;;;;;5021603;28;19928;-94
2022/09/03 01:12:39;;;;;;;;;;;;;;;;;;5020755;28;19989;-94
2022/09/03 01:15:15;;;;;;;;;;;;;;;;;;5023603;28;20377;-95
2022/09/03 01:17:59;;;;;;;;;;;;;;;;;;5037641;28;19917;-93
2022/09/03 01:20:31;;;;;;;;;;;;;;;;;;5041422;28;20392;-94
2022/09/03 01:22:58;;;;;;;;;;;;;;;;;;5042053;28;19936;-94
2022/09/03 01:25:30;;;;;;;;;;;;;;;;;;5040393;28;20380;-93
2022/09/03 01:28:31;;;;;;;;;;;;;;;;;;5041592;28;19917;-94
2022/09/03 01:31:25;;;;;;;;;;;;;;;;;;5018818;28;19936;-94
2022/09/03 01:33:53;;;;;;;;;;;;;;;;;;5027265;28;19917;-92
2022/09/03 01:36:25;;;;;;;;;;;;;;;;;;5032549;28;19922;-94
2022/09/03 01:38:54;;;;;;;;;;;;;;;;;;5035933;28;20346;-96
2022/09/03 01:44:28;;;;;;;;;;;;;;;;;;5034963;28;19924;-93
2022/09/03 01:46:58;;;;;;;;;;;;;;;;;;5021346;28;19917;-94
2022/09/03 01:49:31;;;;;;;;;;;;;;;;;;5040845;28;19917;-94
2022/09/03 01:52:10;;;;;;;;;;;;;;;;;;5040821;28;19924;-93
2022/09/03 01:54:35;;;;;;;;;;;;;;;;;;5040867;28;19968;-94
2022/09/03 01:57:19;;;;;;;;;;;;;;;;;;5022567;28;19983;-93
2022/09/03 01:59:53;;;;;;;;;;;;;;;;;;5038645;28;19924;-93
2022/09/03 02:02:21;;;;;;;;;;;;;;;;;;5035380;28;19917;-93
2022/09/03 02:04:55;;;;;;;;;;;;;;;;;;5020788;28;20376;-93
2022/09/03 02:07:22;;;;;;;;;;;;;;;;;;5021512;28;20023;-93
2022/09/03 02:09:48;;;;;;;;;;;;;;;;;;5023668;28;19960;-92
2022/09/03 02:12:15;;;;;;;;;;;;;;;;;;5031843;28;19928;-92
2022/09/03 02:14:41;;;;;;;;;;;;;;;;;;5035357;28;19917;-92
2022/09/03 02:17:08;;;;;;;;;;;;;;;;;;5041714;28;19981;-93
2022/09/03 02:19:36;;;;;;;;;;;;;;;;;;5031885;28;19918;-93
2022/09/03 02:22:06;;;;;;;;;;;;;;;;;;5011616;28;19941;-94
2022/09/03 02:24:35;;;;;;;;;;;;;;;;;;5021424;28;19901;-93
2022/09/03 02:27:06;;;;;;;;;;;;;;;;;;5018035;28;19918;-93
2022/09/03 02:29:31;;;;;;;;;;;;;;;;;;5010496;28;19917;-94
2022/09/03 02:31:57;;;;;;;;;;;;;;;;;;5011342;28;20013;-93
2022/09/03 02:34:26;;;;;;;;;;;;;;;;;;5011804;28;20488;-94
2022/09/03 02:36:58;;;;;;;;;;;;;;;;;;5014384;28;20027;-93
2022/09/03 02:39:28;;;;;;;;;;;;;;;;;;5013424;28;19918;-93
2022/09/03 02:42:07;;;;;;;;;;;;;;;;;;5014439;28;19949;-94
2022/09/03 02:44:36;;;;;;;;;;;;;;;;;;5012146;28;20075;-95
2022/09/03 02:47:03;;;;;;;;;;;;;;;;;;5015761;28;19918;-93
2022/09/03 02:49:34;;;;;;;;;;;;;;;;;;5015639;28;19902;-93
2022/09/03 02:52:11;;;;;;;;;;;;;;;;;;4999043;28;19918;-94
2022/09/03 02:54:38;;;;;;;;;;;;;;;;;;5016169;28;19964;-94
2022/09/03 02:57:07;;;;;;;;;;;;;;;;;;5015354;28;19925;-93
2022/09/03 02:59:33;;;;;;;;;;;;;;;;;;5014140;28;19918;-93
2022/09/03 03:01:58;;;;;;;;;;;;;;;;;;5012550;28;19917;-94
2022/09/03 03:04:24;;;;;;;;;;;;;;;;;;5026482;28;19914;-92
2022/09/03 03:06:49;;;;;;;;;;;;;;;;;;5024982;28;19918;-93
2022/09/03 03:09:15;;;;;;;;;;;;;;;;;;5025893;28;19921;-92
2022/09/03 03:11:41;;;;;;;;;;;;;;;;;;5021814;28;19943;-93
2022/09/03 03:14:08;;;;;;;;;;;;;;;;;;5050463;28;19921;-93
2022/09/03 03:16:34;;;;;;;;;;;;;;;;;;5024983;28;20369;-93
2022/09/03 03:19:18;;;;;;;;;;;;;;;;;;5058249;28;19917;-93
2022/09/03 03:21:45;;;;;;;;;;;;;;;;;;5039636;28;19917;-92
2022/09/03 03:24:10;;;;;;;;;;;;;;;;;;5033586;28;20365;-94
2022/09/03 03:26:36;;;;;;;;;;;;;;;;;;5052086;28;19917;-92
2022/09/03 03:29:04;;;;;;;;;;;;;;;;;;5051888;28;19917;-92
2022/09/03 03:31:30;;;;;;;;;;;;;;;;;;5051706;28;19924;-92
2022/09/03 03:34:00;;;;;;;;;;;;;;;;;;5047217;28;20296;-90
2022/09/03 03:36:28;;;;;;;;;;;;;;;;;;5035440;28;19965;-92
2022/09/03 03:38:56;;;;;;;;;;;;;;;;;;5033271;28;19921;-92
2022/09/03 03:41:22;;;;;;;;;;;;;;;;;;5027641;28;19925;-92
2022/09/03 03:43:57;;;;;;;;;;;;;;;;;;5045941;28;19996;-93
2022/09/03 03:46:24;;;;;;;;;;;;;;;;;;5051857;28;19981;-93
2022/09/03 03:48:50;;;;;;;;;;;;;;;;;;5050287;28;19917;-92
2022/09/03 03:51:20;;;;;;;;;;;;;;;;;;5223802;22;19960;-93
2022/09/03 03:54:09;;;;;;;;;;;;;;;;;;5016665;28;19913;-93
2022/09/03 03:56:36;;;;;;;;;;;;;;;;;;5031701;28;19948;-93
2022/09/03 03:59:34;;;;;;;;;;;;;;;;;;5036249;28;19936;-94
2022/09/03 04:02:23;;;;;;;;;;;;;;;;;;5036899;28;19901;-95
2022/09/03 04:05:27;;;;;;;;;;;;;;;;;;4977317;28;19929;-95
2022/09/03 04:08:15;;;;;;;;;;;;;;;;;;4974104;28;20091;-94
2022/09/03 04:10:42;;;;;;;;;;;;;;;;;;4975523;28;19923;-94
2022/09/03 04:13:10;;;;;;;;;;;;;;;;;;4974433;29;19903;-93
2022/09/03 04:15:51;;;;;;;;;;;;;;;;;;4959376;28;19973;-93
2022/09/03 04:18:18;;;;;;;;;;;;;;;;;;4953928;29;19919;-93
2022/09/03 04:20:44;;;;;;;;;;;;;;;;;;4967694;29;19918;-92
2022/09/03 04:23:11;;;;;;;;;;;;;;;;;;4968095;29;19925;-94
2022/09/03 04:29:21;;;;;;;;;;;;;;;;;;5002096;22;19952;-93
2022/09/03 04:35:03;;;;;;;;;;;;;;;;;;5164983;22;19972;-94
2022/09/03 04:37:56;;;;;;;;;;;;;;;;;;5046409;28;19913;-95
2022/09/03 04:40:43;;;;;;;;;;;;;;;;;;5116087;22;19916;-94
2022/09/03 04:46:21;;;;;;;;;;;;;;;;;;5049069;28;19924;-93
2022/09/03 04:49:08;;;;;;;;;;;;;;;;;;5045954;28;19917;-92
2022/09/03 04:51:42;;;;;;;;;;;;;;;;;;5030739;28;20011;-94
2022/09/03 04:57:25;;;;;;;;;;;;;;;;;;5056744;28;19933;-94
2022/09/03 05:06:32;;;;;;;;;;;;;;;;;;5056862;28;19944;-94
2022/09/03 05:09:01;;;;;;;;;;;;;;;;;;5036581;28;19921;-92
2022/09/03 05:11:36;;;;;;;;;;;;;;;;;;5054369;28;19921;-93
2022/09/03 05:14:02;;;;;;;;;;;;;;;;;;5049670;28;19917;-93
2022/09/03 05:17:06;;;;;;;;;;;;;;;;;;5056319;22;19959;-93
2022/09/03 05:23:20;;;;;;;;;;;;;;;;;;5109285;22;19982;-93
2022/09/03 05:26:11;;;;;;;;;;;;;;;;;;5025886;28;19922;-93
2022/09/03 05:28:40;;;;;;;;;;;;;;;;;;5019010;28;20385;-94
2022/09/03 05:31:14;;;;;;;;;;;;;;;;;;5005984;28;20009;-92
2022/09/03 05:33:44;;;;;;;;;;;;;;;;;;5012658;28;20361;-94
2022/09/03 05:36:11;;;;;;;;;;;;;;;;;;5036552;28;19913;-93
2022/09/03 05:41:55;;;;;;;;;;;;;;;;;;5042263;22;19916;-93
2022/09/03 05:44:26;;;;;;;;;;;;;;;;;;5032115;28;19917;-94
2022/09/03 05:47:12;;;;;;;;;;;;;;;;;;5030068;28;19932;-94
2022/09/03 05:49:38;;;;;;;;;;;;;;;;;;5030267;28;19917;-94
2022/09/03 05:58:34;;;;;;;;;;;;;;;;;;5067476;22;19916;-93
2022/09/03 06:04:52;;;;;;;;;;;;;;;;;;5053616;22;19976;-93
2022/09/03 06:13:18;;;;;;;;;;;;;;;;;;5014612;28;19928;-93
2022/09/03 06:16:12;;;;;;;;;;;;;;;;;;5015107;28;19949;-93
2022/09/03 06:22:05;;;;;;;;;;;;;;;;;;4944321;29;19919;-94
2022/09/03 06:25:00;;;;;;;;;;;;;;;;;;4981259;28;19941;-92
2022/09/03 06:27:55;;;;;;;;;;;;;;;;;;4953184;28;19982;-90
2022/09/03 06:30:46;;;;;;;;;;;;;;;;;;4969529;28;19906;-91
2022/09/03 06:33:24;;;;;;;;;;;;;;;;;;4983808;28;19907;-92
2022/09/03 06:35:56;;;;;;;;;;;;;;;;;;4963888;28;19927;-94
2022/09/03 06:38:24;;;;;;;;;;;;;;;;;;4947689;29;19922;-92
2022/09/03 06:41:09;;;;;;;;;;;;;;;;;;4961673;29;19926;-93
2022/09/03 06:43:41;;;;;;;;;;;;;;;;;;4968425;29;20018;-90
2022/09/03 06:46:14;;;;;;;;;;;;;;;;;;4973302;29;20020;-90
2022/09/03 06:48:46;;;;;;;;;;;;;;;;;;4973890;29;19919;-94
2022/09/03 06:51:13;;;;;;;;;;;;;;;;;;4969038;28;19918;-95
2022/09/03 06:54:05;;;;;;;;;;;;;;;;;;4967231;29;19970;-94
2022/09/03 06:56:42;;;;;;;;;;;;;;;;;;4971545;29;19919;-94
2022/09/03 06:59:12;;;;;;;;;;;;;;;;;;4985321;28;19922;-92
2022/09/03 07:01:42;;;;;;;;;;;;;;;;;;4983392;28;19925;-93
2022/09/03 07:04:11;;;;;;;;;;;;;;;;;;5007705;28;19987;-92
2022/09/03 07:06:39;;;;;;;;;;;;;;;;;;5004239;28;19966;-91
2022/09/03 07:09:08;;;;;;;;;;;;;;;;;;4988438;28;19918;-92
2022/09/03 07:11:45;;;;;;;;;;;;;;;;;;5000476;28;19972;-91
2022/09/03 07:14:10;;;;;;;;;;;;;;;;;;4984524;28;19918;-92
2022/09/03 07:16:36;;;;;;;;;;;;;;;;;;4979295;28;20370;-92
2022/09/03 07:19:05;;;;;;;;;;;;;;;;;;4978668;28;20414;-92
2022/09/03 07:21:32;;;;;;;;;;;;;;;;;;4980195;28;19933;-92
2022/09/03 07:23:59;;;;;;;;;;;;;;;;;;4997564;28;19957;-93
2022/09/03 07:26:39;;;;;;;;;;;;;;;;;;4985693;28;19963;-91
2022/09/03 07:29:10;;;;;;;;;;;;;;;;;;4986198;28;20372;-93
2022/09/03 07:31:37;;;;;;;;;;;;;;;;;;4982947;28;19920;-93
2022/09/03 07:34:05;;;;;;;;;;;;;;;;;;5003979;28;19917;-93
2022/09/03 07:36:38;;;;;;;;;;;;;;;;;;5027400;28;20284;-91
2022/09/03 07:39:04;;;;;;;;;;;;;;;;;;5027252;28;19980;-93
2022/09/03 07:41:36;;;;;;;;;;;;;;;;;;5042320;28;19952;-93
2022/09/03 07:44:07;;;;;;;;;;;;;;;;;;5042540;28;19971;-92
2022/09/03 07:46:34;;;;;;;;;;;;;;;;;;5021026;28;20458;-92
2022/09/03 07:49:04;;;;;;;;;;;;;;;;;;5019841;28;19932;-93
2022/09/03 07:51:30;;;;;;;;;;;;;;;;;;5021764;28;19917;-92
2022/09/03 07:53:57;;;;;;;;;;;;;;;;;;5019700;28;19913;-92
2022/09/03 07:56:23;;;;;;;;;;;;;;;;;;5018383;28;19917;-94
2022/09/03 07:59:10;;;;;;;;;;;;;;;;;;5018734;28;20284;-92
2022/09/03 08:01:36;;;;;;;;;;;;;;;;;;5018268;28;20384;-94
2022/09/03 08:04:03;;;;;;;;;;;;;;;;;;5018147;28;19913;-92
2022/09/03 08:06:29;;;;;;;;;;;;;;;;;;5035828;28;19921;-93
2022/09/03 08:08:57;;;;;;;;;;;;;;;;;;5035467;28;19921;-94
2022/09/03 08:11:23;;;;;;;;;;;;;;;;;;5036356;28;19917;-92
2022/09/03 08:14:00;;;;;;;;;;;;;;;;;;5018951;28;20059;-93
2022/09/03 08:16:26;;;;;;;;;;;;;;;;;;5036522;28;19917;-92
2022/09/03 08:18:52;;;;;;;;;;;;;;;;;;5019714;28;20002;-93
2022/09/03 08:21:18;;;;;;;;;;;;;;;;;;5034565;28;19980;-91
2022/09/03 08:23:48;;;;;;;;;;;;;;;;;;5035039;28;19917;-93
2022/09/03 08:26:14;;;;;;;;;;;;;;;;;;5006508;28;19925;-92
2022/09/03 08:28:41;;;;;;;;;;;;;;;;;;5014022;28;19917;-92
2022/09/03 08:31:17;;;;;;;;;;;;;;;;;;5017456;28;19940;-92
2022/09/03 08:33:44;;;;;;;;;;;;;;;;;;5018148;28;19928;-92
2022/09/03 08:36:17;;;;;;;;;;;;;;;;;;5018741;28;20020;-92
2022/09/03 08:38:56;;;;;;;;;;;;;;;;;;5039503;28;19949;-94
2022/09/03 08:41:41;;;;;;;;;;;;;;;;;;5022760;28;19976;-93
2022/09/03 08:44:07;;;;;;;;;;;;;;;;;;5014962;28;19952;-93
2022/09/03 08:46:38;;;;;;;;;;;;;;;;;;5015191;28;19918;-91
2022/09/03 08:49:05;;;;;;;;;;;;;;;;;;5013413;28;20387;-92
2022/09/03 08:51:32;;;;;;;;;;;;;;;;;;5015788;28;19913;-93
2022/09/03 08:54:06;;;;;;;;;;;;;;;;;;5036605;28;19925;-94
2022/09/03 08:56:32;;;;;;;;;;;;;;;;;;5016741;28;19917;-91
2022/09/03 08:58:59;;;;;;;;;;;;;;;;;;5016475;28;19960;-92
2022/09/03 09:01:43;;;;;;;;;;;;;;;;;;5015949;28;19919;-91
2022/09/03 09:04:12;;;;;;;;;;;;;;;;;;5033900;28;19959;-93
2022/09/03 09:06:43;;;;;;;;;;;;;;;;;;5016892;28;19925;-93
2022/09/03 09:09:12;;;;;;;;;;;;;;;;;;5017522;28;19936;-93
2022/09/03 09:11:46;;;;;;;;;;;;;;;;;;5034472;28;19929;-92
2022/09/03 09:14:19;;;;;;;;;;;;;;;;;;5016988;28;20315;-93
2022/09/03 09:17:00;;;;;;;;;;;;;;;;;;5016539;28;20369;-93
2022/09/03 09:19:32;;;;;;;;;;;;;;;;;;5032633;28;19925;-94
2022/09/03 09:22:02;;;;;;;;;;;;;;;;;;5017429;28;19921;-92
2022/09/03 09:24:33;;;;;;;;;;;;;;;;;;5020576;28;19936;-93
2022/09/03 09:26:59;;;;;;;;;;;;;;;;;;5019510;28;19917;-93
2022/09/03 09:29:29;;;;;;;;;;;;;;;;;;5017361;28;19928;-93
2022/09/03 09:31:54;;;;;;;;;;;;;;;;;;5017611;28;19927;-93
2022/09/03 09:34:20;;;;;;;;;;;;;;;;;;5017448;28;19965;-93
2022/09/03 09:36:53;;;;;;;;;;;;;;;;;;5016224;28;19971;-93
2022/09/03 09:39:19;;;;;;;;;;;;;;;;;;5033613;28;19941;-93
2022/09/03 09:42:04;;;;;;;;;;;;;;;;;;5015753;28;20540;-93
2022/09/03 09:44:29;;;;;;;;;;;;;;;;;;5022269;28;19917;-93
2022/09/03 09:47:10;;;;;;;;;;;;;;;;;;5023385;28;20411;-93
2022/09/03 09:49:38;;;;;;;;;;;;;;;;;;5027394;28;19917;-93
2022/09/03 09:52:10;;;;;;;;;;;;;;;;;;5025147;28;20351;-92
2022/09/03 09:54:36;;;;;;;;;;;;;;;;;;5040630;28;19917;-92
2022/09/03 09:57:05;;;;;;;;;;;;;;;;;;5020829;28;19920;-91
2022/09/03 09:59:32;;;;;;;;;;;;;;;;;;5018398;28;20012;-91
2022/09/03 10:02:12;;;;;;;;;;;;;;;;;;5031611;28;19924;-92
2022/09/03 10:04:44;;;;;;;;;;;;;;;;;;5016194;28;19925;-92
2022/09/03 10:07:23;;;;;;;;;;;;;;;;;;5038478;28;19950;-91
2022/09/03 10:10:04;;;;;;;;;;;;;;;;;;5029178;28;20016;-92
2022/09/03 10:12:36;;;;;;;;;;;;;;;;;;5023333;28;19933;-92
2022/09/03 10:15:02;;;;;;;;;;;;;;;;;;5027309;28;19921;-92
2022/09/03 10:17:46;;;;;;;;;;;;;;;;;;5021326;28;20023;-93
2022/09/03 10:20:31;;;;;;;;;;;;;;;;;;5022446;28;19924;-92
2022/09/03 10:23:04;;;;;;;;;;;;;;;;;;5038096;28;19917;-92
2022/09/03 10:25:42;;;;;;;;;;;;;;;;;;5020250;28;19917;-92
2022/09/03 10:28:09;;;;;;;;;;;;;;;;;;5020187;28;19925;-93
2022/09/03 10:30:48;;;;;;;;;;;;;;;;;;5020728;28;19917;-93
2022/09/03 10:33:33;;;;;;;;;;;;;;;;;;5023242;28;19918;-92
2022/09/03 10:36:07;;;;;;;;;;;;;;;;;;5035147;28;19917;-92
2022/09/03 10:38:41;;;;;;;;;;;;;;;;;;5029726;28;19955;-94
2022/09/03 10:41:13;;;;;;;;;;;;;;;;;;5016675;28;20068;-92
2022/09/03 10:43:40;;;;;;;;;;;;;;;;;;5040228;28;20114;-91
2022/09/03 10:46:09;;;;;;;;;;;;;;;;;;5030809;28;19917;-92
2022/09/03 10:48:42;;;;;;;;;;;;;;;;;;5038598;28;19939;-92
2022/09/03 10:51:24;;;;;;;;;;;;;;;;;;5034338;28;19925;-93
2022/09/03 10:54:23;;;;;;;;;;;;;;;;;;5026869;28;19921;-90
2022/09/03 10:56:51;;;;;;;;;;;;;;;;;;5009043;28;19921;-91
2022/09/03 10:59:23;;;;;;;;;;;;;;;;;;5025511;28;19924;-95
2022/09/03 11:01:58;;;;;;;;;;;;;;;;;;5024697;28;19944;-92
2022/09/03 11:04:48;;;;;;;;;;;;;;;;;;5022646;28;20436;-94
2022/09/03 11:07:16;;;;;;;;;;;;;;;;;;5043372;28;19921;-92
2022/09/03 11:09:46;;;;;;;;;;;;;;;;;;5029947;28;19921;-92
2022/09/03 11:12:36;;;;;;;;;;;;;;;;;;5028576;28;19924;-91
2022/09/03 11:15:24;;;;;;;;;;;;;;;;;;5026300;28;19924;-92
2022/09/03 11:18:13;;;;;;;;;;;;;;;;;;5046278;28;19917;-93
2022/09/03 11:20:39;;;;;;;;;;;;;;;;;;5022494;28;19917;-93
2022/09/03 11:23:06;;;;;;;;;;;;;;;;;;5029260;28;19963;-92
2022/09/03 11:25:41;;;;;;;;;;;;;;;;;;5049566;28;19951;-93
2022/09/03 11:28:24;;;;;;;;;;;;;;;;;;5046739;28;19917;-93
2022/09/03 11:31:12;;;;;;;;;;;;;;;;;;5021517;28;19932;-92
2022/09/03 11:33:41;;;;;;;;;;;;;;;;;;5022023;28;20032;-92
2022/09/03 11:36:06;;;;;;;;;;;;;;;;;;5020168;28;19917;-91
2022/09/03 11:38:31;;;;;;;;;;;;;;;;;;5018992;28;20285;-93
2022/09/03 11:40:57;;;;;;;;;;;;;;;;;;5021811;28;19921;-91
2022/09/03 11:43:22;;;;;;;;;;;;;;;;;;5023119;28;19917;-91
2022/09/03 11:45:49;;;;;;;;;;;;;;;;;;5023046;28;20559;-92
2022/09/03 11:48:33;;;;;;;;;;;;;;;;;;5007790;28;19921;-94
2022/09/03 11:50:59;;;;;;;;;;;;;;;;;;5022089;28;19917;-93
2022/09/03 11:53:27;;;;;;;;;;;;;;;;;;5026505;28;19992;-93
2022/09/03 11:55:54;;;;;;;;;;;;;;;;;;5045786;28;19917;-92
2022/09/03 11:58:33;;;;;;;;;;;;;;;;;;5025435;28;19921;-93
2022/09/03 12:01:06;;;;;;;;;;;;;;;;;;5023042;28;20361;-88
2022/09/03 12:03:41;;;;;;;;;;;;;;;;;;5017519;28;19917;-89
2022/09/03 12:06:18;;;;;;;;;;;;;;;;;;5034568;28;19944;-90
2022/09/03 12:09:01;;;;;;;;;;;;;;;;;;5034778;28;19917;-89
2022/09/03 12:11:44;;;;;;;;;;;;;;;;;;5016944;28;20008;-89
2022/09/03 12:14:16;;;;;;;;;;;;;;;;;;5016851;28;19933;-89
2022/09/03 12:16:56;;;;;;;;;;;;;;;;;;5016762;28;19925;-91
2022/09/03 12:19:21;;;;;;;;;;;;;;;;;;5034366;28;19957;-90
2022/09/03 12:21:48;;;;;;;;;;;;;;;;;;5016608;28;19972;-88
2022/09/03 12:24:14;;;;;;;;;;;;;;;;;;5016566;28;19913;-88
2022/09/03 12:26:41;;;;;;;;;;;;;;;;;;5016456;28;19917;-90
2022/09/03 12:29:16;;;;;;;;;;;;;;;;;;5016229;28;19917;-89
2022/09/03 12:31:43;;;;;;;;;;;;;;;;;;5034146;28;19931;-90
2022/09/03 12:34:14;;;;;;;;;;;;;;;;;;5034126;28;19940;-91
2022/09/03 12:36:43;;;;;;;;;;;;;;;;;;5034170;28;19924;-90
2022/09/03 12:39:10;;;;;;;;;;;;;;;;;;5033960;28;19917;-90
2022/09/03 12:41:36;;;;;;;;;;;;;;;;;;5016414;28;19917;-89
2022/09/03 12:44:02;;;;;;;;;;;;;;;;;;5016229;28;19917;-90
2022/09/03 12:46:28;;;;;;;;;;;;;;;;;;5033949;28;19925;-89
2022/09/03 12:49:02;;;;;;;;;;;;;;;;;;5033896;28;19924;-90
2022/09/03 12:51:35;;;;;;;;;;;;;;;;;;5016250;28;19978;-89
2022/09/03 12:54:02;;;;;;;;;;;;;;;;;;5016050;28;20008;-89
2022/09/03 12:56:29;;;;;;;;;;;;;;;;;;5016819;28;19987;-91
2022/09/03 12:59:00;;;;;;;;;;;;;;;;;;5016590;28;19924;-90
2022/09/03 13:01:32;;;;;;;;;;;;;;;;;;5016644;28;19924;-90
2022/09/03 13:04:16;;;;;;;;;;;;;;;;;;5016146;28;19964;-90
2022/09/03 13:06:48;;;;;;;;;;;;;;;;;;5033832;28;19921;-90
2022/09/03 13:09:15;;;;;;;;;;;;;;;;;;5033677;28;19961;-89
2022/09/03 13:11:43;;;;;;;;;;;;;;;;;;5016939;28;21302;-89
2022/09/03 13:14:14;;;;;;;;;;;;;;;;;;5015807;28;19917;-90
2022/09/03 13:16:45;;;;;;;;;;;;;;;;;;5033676;28;19946;-88
2022/09/03 13:19:11;;;;;;;;;;;;;;;;;;5033352;28;19925;-89
2022/09/03 13:21:52;;;;;;;;;;;;;;;;;;5033371;28;19923;-88
2022/09/03 13:24:36;;;;;;;;;;;;;;;;;;5015722;28;19925;-89
2022/09/03 13:27:07;;;;;;;;;;;;;;;;;;5015688;28;19924;-89
2022/09/03 13:29:57;;;;;;;;;;;;;;;;;;5033416;28;19924;-89
2022/09/03 13:32:26;;;;;;;;;;;;;;;;;;5015573;28;19924;-89
2022/09/03 13:35:11;;;;;;;;;;;;;;;;;;5015551;28;20426;-90
2022/09/03 13:37:37;;;;;;;;;;;;;;;;;;5031383;28;19917;-89
2022/09/03 13:40:14;;;;;;;;;;;;;;;;;;5016756;28;20418;-89
2022/09/03 13:42:41;;;;;;;;;;;;;;;;;;5033010;28;19917;-90
2022/09/03 13:45:33;;;;;;;;;;;;;;;;;;5011056;28;19922;-90
2022/09/03 13:51:08;;;;;;;;;;;;;;;;;;5015648;28;19924;-88
2022/09/03 13:53:47;;;;;;;;;;;;;;;;;;4998087;28;20411;-89
2022/09/03 13:56:22;;;;;;;;;;;;;;;;;;5015853;28;19913;-90
2022/09/03 13:58:55;;;;;;;;;;;;;;;;;;5036113;28;20384;-90
2022/09/03 14:01:24;;;;;;;;;;;;;;;;;;5036352;28;19921;-89
2022/09/03 14:03:54;;;;;;;;;;;;;;;;;;5012542;28;19921;-89
2022/09/03 14:06:28;;;;;;;;;;;;;;;;;;5013095;28;20415;-89
2022/09/03 14:09:03;;;;;;;;;;;;;;;;;;4997760;28;19921;-89
2022/09/03 14:11:47;;;;;;;;;;;;;;;;;;5021305;28;19921;-91
2022/09/03 14:14:32;;;;;;;;;;;;;;;;;;5010530;28;19980;-90
2022/09/03 14:17:01;;;;;;;;;;;;;;;;;;5017687;28;19928;-90
2022/09/03 14:19:55;;;;;;;;;;;;;;;;;;5013915;28;19964;-89
2022/09/03 14:22:23;;;;;;;;;;;;;;;;;;4983033;28;20000;-90
2022/09/03 14:24:59;;;;;;;;;;;;;;;;;;4998739;28;19918;-90
2022/09/03 14:27:26;;;;;;;;;;;;;;;;;;4998190;28;19921;-91
2022/09/03 14:30:01;;;;;;;;;;;;;;;;;;5014467;28;19980;-89
2022/09/03 14:32:44;;;;;;;;;;;;;;;;;;4996353;28;19913;-89
2022/09/03 14:35:10;;;;;;;;;;;;;;;;;;4996378;28;19921;-91
2022/09/03 14:38:01;;;;;;;;;;;;;;;;;;4997023;28;19918;-89
2022/09/03 14:40:39;;;;;;;;;;;;;;;;;;4997138;28;19927;-91
2022/09/03 14:43:04;;;;;;;;;;;;;;;;;;5000543;28;19924;-92
2022/09/03 14:45:40;;;;;;;;;;;;;;;;;;4998870;28;19917;-89
2022/09/03 14:48:12;;;;;;;;;;;;;;;;;;5024582;28;19960;-90
2022/09/03 14:50:44;;;;;;;;;;;;;;;;;;5037704;28;19928;-92
2022/09/03 14:53:25;;;;;;;;;;;;;;;;;;5020125;28;20296;-89
2022/09/03 14:55:53;;;;;;;;;;;;;;;;;;5020257;28;19917;-89
2022/09/03 14:58:22;;;;;;;;;;;;;;;;;;5022105;28;19951;-90
2022/09/03 15:01:12;;;;;;;;;;;;;;;;;;5039865;28;19917;-90
2022/09/03 15:03:56;;;;;;;;;;;;;;;;;;5017753;28;19917;-89
2022/09/03 15:06:48;;;;;;;;;;;;;;;;;;5019229;28;20434;-91
2022/09/03 15:09:36;;;;;;;;;;;;;;;;;;4997907;28;20003;-90
2022/09/03 15:12:26;;;;;;;;;;;;;;;;;;5026277;28;20011;-90
2022/09/03 15:14:51;;;;;;;;;;;;;;;;;;5037765;28;19940;-90
2022/09/03 15:17:35;;;;;;;;;;;;;;;;;;5027135;28;19921;-89
2022/09/03 15:20:10;;;;;;;;;;;;;;;;;;5002080;28;19917;-90
2022/09/03 15:22:41;;;;;;;;;;;;;;;;;;4999180;28;19918;-92
2022/09/03 15:25:07;;;;;;;;;;;;;;;;;;4999978;28;19940;-91
2022/09/03 15:27:51;;;;;;;;;;;;;;;;;;5023853;28;20435;-90
2022/09/03 15:30:18;;;;;;;;;;;;;;;;;;5018054;28;19972;-89
2022/09/03 15:32:44;;;;;;;;;;;;;;;;;;5016222;28;19972;-91
2022/09/03 15:35:32;;;;;;;;;;;;;;;;;;4997912;28;19913;-90
2022/09/03 15:38:11;;;;;;;;;;;;;;;;;;5015738;28;19922;-90
2022/09/03 15:40:46;;;;;;;;;;;;;;;;;;5035867;28;19913;-90
2022/09/03 15:43:29;;;;;;;;;;;;;;;;;;5036006;28;19960;-90
2022/09/03 15:45:57;;;;;;;;;;;;;;;;;;5036095;28;20004;-90
2022/09/03 15:48:46;;;;;;;;;;;;;;;;;;5018244;28;19917;-90
2022/09/03 15:51:24;;;;;;;;;;;;;;;;;;5006111;28;20389;-91
2022/09/03 15:54:02;;;;;;;;;;;;;;;;;;5025880;28;20374;-92
2022/09/03 15:56:30;;;;;;;;;;;;;;;;;;5007134;28;19933;-89
2022/09/03 15:59:02;;;;;;;;;;;;;;;;;;5035728;28;19925;-91
2022/09/03 16:01:36;;;;;;;;;;;;;;;;;;5033675;28;19917;-92
2022/09/03 16:04:08;;;;;;;;;;;;;;;;;;5039340;28;19921;-90
2022/09/03 16:06:55;;;;;;;;;;;;;;;;;;5015448;28;19992;-88
2022/09/03 16:09:28;;;;;;;;;;;;;;;;;;5011401;28;20352;-89
2022/09/03 16:12:13;;;;;;;;;;;;;;;;;;5001351;28;19929;-91
2022/09/03 16:14:43;;;;;;;;;;;;;;;;;;4996446;28;19922;-91
2022/09/03 16:17:14;;;;;;;;;;;;;;;;;;4994596;28;19937;-91
2022/09/03 16:20:01;;;;;;;;;;;;;;;;;;4990058;28;20464;-90
2022/09/03 16:22:28;;;;;;;;;;;;;;;;;;5004122;28;20301;-90
2022/09/03 16:25:21;;;;;;;;;;;;;;;;;;4989805;28;19925;-90
2022/09/03 16:28:02;;;;;;;;;;;;;;;;;;4976935;28;19922;-89
2022/09/03 16:30:27;;;;;;;;;;;;;;;;;;4979834;28;19981;-92
2022/09/03 16:33:25;;;;;;;;;;;;;;;;;;4987875;28;19918;-91
2022/09/03 16:36:03;;;;;;;;;;;;;;;;;;4981445;28;20333;-89
2022/09/03 16:38:47;;;;;;;;;;;;;;;;;;4988873;28;19921;-90
2022/09/03 16:41:33;;;;;;;;;;;;;;;;;;4982238;28;20378;-89
2022/09/03 16:44:08;;;;;;;;;;;;;;;;;;4981840;28;19922;-91
2022/09/03 16:47:03;;;;;;;;;;;;;;;;;;4994632;28;19918;-90
2022/09/03 16:49:47;;;;;;;;;;;;;;;;;;5000930;28;19921;-91
2022/09/03 16:52:16;;;;;;;;;;;;;;;;;;4994446;28;19941;-90
2022/09/03 16:54:44;;;;;;;;;;;;;;;;;;4993718;28;19925;-90
2022/09/03 16:57:19;;;;;;;;;;;;;;;;;;4993767;28;19918;-90
2022/09/03 17:00:04;;;;;;;;;;;;;;;;;;4980462;28;19925;-90
2022/09/03 17:02:48;;;;;;;;;;;;;;;;;;4973712;28;20053;-89
2022/09/03 17:05:22;;;;;;;;;;;;;;;;;;4976570;28;19921;-89
2022/09/03 17:07:50;;;;;;;;;;;;;;;;;;5013734;28;20371;-92
2022/09/03 17:10:35;;;;;;;;;;;;;;;;;;5014067;28;19963;-90
2022/09/03 17:13:19;;;;;;;;;;;;;;;;;;5016146;28;19921;-91
2022/09/03 17:16:03;;;;;;;;;;;;;;;;;;5033384;28;19964;-91
2022/09/03 17:18:37;;;;;;;;;;;;;;;;;;5033444;28;19921;-90
2022/09/03 17:21:21;;;;;;;;;;;;;;;;;;5033688;28;19923;-91
2022/09/03 17:23:50;;;;;;;;;;;;;;;;;;5016128;28;19939;-90
2022/09/03 17:26:21;;;;;;;;;;;;;;;;;;5015862;28;19924;-90
2022/09/03 17:29:12;;;;;;;;;;;;;;;;;;5015803;28;19917;-91
2022/09/03 17:31:38;;;;;;;;;;;;;;;;;;5015484;28;20376;-89
2022/09/03 17:34:04;;;;;;;;;;;;;;;;;;5033367;28;19917;-91
2022/09/03 17:36:32;;;;;;;;;;;;;;;;;;5015668;28;20292;-90
2022/09/03 17:38:57;;;;;;;;;;;;;;;;;;5015423;28;20380;-90
2022/09/03 17:41:43;;;;;;;;;;;;;;;;;;5029331;28;19924;-91
2022/09/03 17:44:17;;;;;;;;;;;;;;;;;;5032284;28;19925;-90
2022/09/03 17:46:58;;;;;;;;;;;;;;;;;;5015456;28;19921;-90
2022/09/03 17:49:28;;;;;;;;;;;;;;;;;;5033163;28;20336;-89
2022/09/03 17:52:13;;;;;;;;;;;;;;;;;;5033192;28;20012;-90
2022/09/03 17:54:43;;;;;;;;;;;;;;;;;;5015514;28;19948;-90
2022/09/03 17:57:18;;;;;;;;;;;;;;;;;;5033069;28;19940;-91
2022/09/03 17:59:49;;;;;;;;;;;;;;;;;;5033122;28;19924;-91
2022/09/03 18:02:23;;;;;;;;;;;;;;;;;;5033031;28;20008;-91
2022/09/03 18:04:53;;;;;;;;;;;;;;;;;;5015286;28;19971;-91
2022/09/03 18:07:44;;;;;;;;;;;;;;;;;;5032805;28;20447;-91
2022/09/03 18:10:19;;;;;;;;;;;;;;;;;;4995024;28;20364;-89
2022/09/03 18:13:03;;;;;;;;;;;;;;;;;;5032939;28;20381;-92
2022/09/03 18:15:28;;;;;;;;;;;;;;;;;;5014398;28;19971;-92
2022/09/03 18:18:00;;;;;;;;;;;;;;;;;;5032820;28;19921;-90
2022/09/03 20:11:08;;;;;;;;;;;;;;;;;;4973884;28;20461;-91
2022/09/03 20:14:11;;;;;;;;;;;;;;;;;;4973679;28;19921;-91